Time;durP1;ratioP1;P1;durP2;ratioP2;P2;SDS_P1;SDS_P2;PMS_P1;PMS_P2;Temp;Humidity;BMP_temperature;BMP_pressure;BME280_temperature;BME280_humidity;BME280_pressure;Samples;Min_cycle;Max_cycle;Signal;HPM_P1;HPM_P2
2022/11/04 00:01:54;;;;;;;;;;;;;;;4.59;94.27;99217.89;1664329;85;21098;-63
2022/11/04 00:04:24;;;;;;;20.77;11.18;;;;;;;4.55;94.41;99213.72;1667310;85;20127;-65
2022/11/04 00:06:51;;;;;;;22.93;10.85;;;;;;;4.56;94.24;99220.57;1657044;85;20945;-65
2022/11/04 00:09:23;;;;;;;;;;;;;;;4.46;94.26;99211.42;1669049;84;21592;-65
2022/11/04 00:14:35;;;;;;;17.00;10.78;;;;;;;4.42;94.34;99209.81;1662511;85;21152;-65
2022/11/04 00:17:22;;;;;;;17.42;10.70;;;;;;;4.44;94.31;99210.61;1651350;84;20955;-65
2022/11/04 00:33:53;;;;;;;22.35;10.82;;;;;;;4.56;95.05;99196.00;1665294;85;21411;-65
2022/11/04 00:36:20;;;;;;;19.32;10.20;;;;;;;4.55;94.88;99193.03;1662428;85;20909;-65
2022/11/04 00:38:47;;;;;;;18.00;9.73;;;;;;;4.55;95.34;99196.91;1660066;85;21059;-64
2022/11/04 00:41:25;;;;;;;16.12;10.65;;;;;;;4.62;95.18;99194.55;1654597;85;21037;-65
2022/11/04 00:44:03;;;;;;;17.32;10.18;;;;;;;4.62;95.20;99189.80;1655526;85;21430;-65
2022/11/04 00:46:32;;;;;;;21.97;11.18;;;;;;;4.55;95.21;99187.86;1663324;85;20937;-64
2022/11/04 00:48:59;;;;;;;19.25;10.80;;;;;;;4.61;95.19;99182.49;1663256;85;21430;-65
2022/11/04 00:51:26;;;;;;;18.67;10.30;;;;;;;4.55;95.75;99177.52;1658975;85;20925;-65
2022/11/04 00:53:53;;;;;;;15.45;10.28;;;;;;;4.65;95.62;99184.10;1660754;85;21082;-65
2022/11/04 00:56:20;;;;;;;14.57;9.47;;;;;;;4.58;95.69;99173.55;1664028;85;20952;-65
2022/11/04 00:58:48;;;;;;;18.40;10.00;;;;;;;4.62;95.24;99172.57;1657457;85;21000;-65
2022/11/04 01:01:16;;;;;;;16.95;9.58;;;;;;;4.56;95.24;99168.86;1660454;85;20961;-65
2022/11/04 01:03:48;;;;;;;18.00;10.20;;;;;;;4.59;94.85;99167.92;1658400;85;21083;-65
2022/11/04 01:06:16;;;;;;;19.42;9.80;;;;;;;4.59;94.81;99164.88;1654119;85;21377;-65
2022/11/04 01:08:42;;;;;;;18.35;9.85;;;;;;;4.56;94.95;99155.93;1665127;84;21425;-65
2022/11/04 01:11:11;;;;;;;20.80;10.47;;;;;;;4.52;95.06;99151.77;1662436;85;20981;-65
2022/11/04 01:13:38;;;;;;;18.45;9.33;;;;;;;4.55;95.06;99145.66;1660581;85;20909;-65
2022/11/04 01:16:09;;;;;;;16.37;9.10;;;;;;;4.55;94.97;99138.73;1661645;85;21490;-65
2022/11/04 01:18:36;;;;;;;21.25;9.70;;;;;;;4.55;95.26;99140.48;1656642;85;21743;-64
2022/11/04 01:21:05;;;;;;;19.77;11.00;;;;;;;4.56;95.28;99127.48;1644933;85;20965;-65
2022/11/04 01:23:34;;;;;;;18.35;9.78;;;;;;;4.54;95.39;99120.25;1661944;85;21430;-65
2022/11/04 01:26:06;;;;;;;22.20;9.90;;;;;;;4.55;95.84;99115.47;1647391;85;20977;-65
2022/11/04 01:28:33;;;;;;;17.65;9.43;;;;;;;4.66;95.63;99110.80;1652339;85;20894;-65
2022/11/04 01:31:06;;;;;;;18.80;9.93;;;;;;;4.75;95.65;99107.05;1659384;85;21066;-65
2022/11/04 01:33:32;;;;;;;20.77;9.63;;;;;;;4.82;95.54;99098.20;1661223;85;21503;-65
2022/11/04 01:36:00;;;;;;;18.25;9.15;;;;;;;4.85;95.39;99094.67;1668008;85;20976;-65
2022/11/04 01:38:26;;;;;;;;;;;;;;;4.88;95.48;99097.16;1660577;85;20913;-65
2022/11/04 01:40:53;;;;;;;14.85;9.13;;;;;;;4.90;95.54;99086.28;1649508;85;20169;-65
2022/11/04 01:43:22;;;;;;;18.87;9.43;;;;;;;4.89;95.68;99085.90;1646456;85;21075;-65
2022/11/04 01:45:54;;;;;;;16.32;9.15;;;;;;;4.89;95.69;99085.90;1668631;85;20945;-65
2022/11/04 01:48:28;;;;;;;17.52;8.60;;;;;;;4.89;95.57;99080.72;1656415;85;20961;-65
2022/11/04 01:50:55;;;;;;;15.35;8.63;;;;;;;4.90;95.78;99072.05;1653293;85;21004;-65
2022/11/04 01:53:35;;;;;;;21.35;8.48;;;;;;;4.94;95.79;99070.61;1647466;85;20949;-65
2022/11/04 01:56:10;;;;;;;18.40;9.30;;;;;;;4.98;95.81;99072.63;1658407;85;21021;-64
2022/11/04 01:58:34;;;;;;;15.93;8.88;;;;;;;4.91;96.09;99071.17;1661596;85;20989;-65
2022/11/04 02:01:02;;;;;;;16.83;9.20;;;;;;;4.99;96.08;99063.16;1654894;85;20972;-64
2022/11/04 02:03:38;;;;;;;14.93;8.28;;;;;;;4.92;96.23;99065.09;1661158;85;20957;-65
2022/11/04 02:06:05;;;;;;;22.52;9.30;;;;;;;5.00;96.28;99055.32;1649390;85;20906;-65
2022/11/04 02:08:33;;;;;;;16.32;8.03;;;;;;;5.06;96.09;99047.34;1648218;84;21166;-65
2022/11/04 02:11:02;;;;;;;20.25;8.60;;;;;;;5.00;96.36;99044.97;1661326;85;21482;-65
2022/11/04 02:13:32;;;;;;;17.17;8.18;;;;;;;5.02;96.61;99045.77;1670543;85;20929;-65
2022/11/04 02:16:24;;;;;;;17.07;8.45;;;;;;;4.98;96.90;99035.58;1649825;84;21036;-65
2022/11/04 02:19:22;;;;;;;15.65;7.75;;;;;;;5.01;97.05;99036.30;1654332;85;20965;-65
2022/11/04 02:22:03;;;;;;;;;;;;;;;5.09;96.96;99031.70;1651127;85;22600;-64
2022/11/04 02:24:59;;;;;;;17.40;8.63;;;;;;;5.12;96.78;99030.75;1655147;85;20166;-65
2022/11/04 02:27:31;;;;;;;17.73;7.75;;;;;;;5.11;96.94;99022.14;1656418;85;20972;-64
2022/11/04 02:30:12;;;;;;;19.12;8.45;;;;;;;5.11;96.83;99029.08;1654079;85;20925;-65
2022/11/04 02:33:12;;;;;;;18.62;8.23;;;;;;;5.06;97.02;99025.34;1670483;85;21481;-65
2022/11/04 02:36:05;;;;;;;13.08;7.37;;;;;;;5.03;97.25;99020.28;1651504;85;21079;-65
2022/11/04 02:38:54;;;;;;;18.10;8.45;;;;;;;5.10;97.21;99023.06;1656924;85;20980;-65
2022/11/04 02:41:41;;;;;;;15.83;7.35;;;;;;;5.07;97.47;99018.00;1657880;85;21554;-65
2022/11/04 02:44:21;;;;;;;13.70;8.40;;;;;;;5.09;97.36;99023.09;1655814;85;26398;-65
2022/11/04 02:46:52;;;;;;;17.00;8.23;;;;;;;5.22;97.15;99011.87;1652149;85;21463;-65
2022/11/04 02:49:27;;;;;;;17.48;8.08;;;;;;;5.25;96.99;99002.69;1651846;85;21039;-65
2022/11/04 02:52:08;;;;;;;12.70;7.28;;;;;;;5.31;97.11;99010.22;1652065;85;20984;-65
2022/11/04 02:54:49;;;;;;;12.18;7.95;;;;;;;5.39;96.94;99005.61;1655394;85;21605;-65
2022/11/04 02:57:21;;;;;;;13.35;8.33;;;;;;;5.39;96.95;99005.61;1661114;85;21518;-65
2022/11/04 02:59:58;;;;;;;16.95;8.20;;;;;;;5.39;97.17;98997.84;1653554;84;20945;-65
2022/11/04 03:02:35;;;;;;;16.00;8.05;;;;;;;5.43;96.95;98996.81;1655067;84;21079;-65
2022/11/04 03:05:04;;;;;;;19.35;8.18;;;;;;;5.45;97.14;98989.83;1651881;85;20927;-65
2022/11/04 03:07:35;;;;;;;15.03;7.72;;;;;;;5.49;97.03;98983.66;1657621;85;20925;-65
2022/11/04 03:10:25;;;;;;;16.48;7.75;;;;;;;5.43;97.38;98988.20;1671758;84;20921;-65
2022/11/04 03:12:59;;;;;;;16.25;7.28;;;;;;;5.44;97.53;98980.39;1663316;85;21379;-65
2022/11/04 03:15:33;;;;;;;12.47;7.05;;;;;;;5.57;97.21;98984.20;1654449;85;21071;-65
2022/11/04 03:18:08;;;;;;;14.30;7.45;;;;;;;5.59;97.03;98979.78;1662431;85;20945;-65
2022/11/04 03:20:37;;;;;;;13.32;7.40;;;;;;;5.59;96.93;98969.43;1653382;85;20913;-65
2022/11/04 03:23:04;;;;;;;18.62;7.60;;;;;;;5.61;96.89;98970.22;1671284;85;20993;-64
2022/11/04 03:25:38;;;;;;;17.80;7.33;;;;;;;5.63;96.79;98966.72;1663031;85;20965;-65
2022/11/04 03:28:43;;;;;;;10.20;6.72;;;;;;;5.63;96.75;98964.13;1655869;85;21471;-65
2022/11/04 03:31:18;;;;;;;17.37;7.15;;;;;;;5.62;96.78;98958.11;1654505;85;20984;-65
2022/11/04 03:33:51;;;;;;;16.30;7.60;;;;;;;5.63;96.85;98962.83;1655612;85;20930;-65
2022/11/04 03:36:19;;;;;;;13.62;7.47;;;;;;;5.61;96.92;98954.68;1654374;85;21080;-65
2022/11/04 03:38:46;;;;;;;16.42;7.22;;;;;;;5.64;96.81;98954.17;1663673;85;21033;-65
2022/11/04 03:41:21;;;;;;;17.98;6.60;;;;;;;5.63;96.76;98946.00;1652558;85;21121;-65
2022/11/04 03:43:47;;;;;;;22.30;8.55;;;;;;;5.61;96.88;98948.66;1668963;85;21095;-65
2022/11/04 03:46:14;;;;;;;15.15;7.55;;;;;;;5.62;96.82;98947.75;1652451;85;20937;-65
2022/11/04 03:48:44;;;;;;;16.80;7.03;;;;;;;5.60;96.83;98937.47;1656911;85;21107;-65
2022/11/04 03:51:10;;;;;;;15.50;7.08;;;;;;;5.46;97.01;98909.11;1656726;84;21519;-65
2022/11/04 03:53:37;;;;;;;13.78;7.33;;;;;;;5.51;97.33;98942.98;1658527;85;21845;-65
2022/11/04 03:56:24;;;;;;;14.75;7.33;;;;;;;5.55;97.26;98935.51;1656798;85;21743;-65
2022/11/04 03:59:15;;;;;;;10.80;6.37;;;;;;;5.57;97.20;98937.59;1655106;85;26779;-65
2022/11/04 04:02:02;;;;;;;13.90;6.55;;;;;;;5.59;97.12;98927.99;1659862;85;20973;-65
2022/11/04 04:04:58;;;;;;;12.30;6.83;;;;;;;5.61;96.95;98936.55;1654813;85;20993;-65
2022/11/04 04:07:32;;;;;;;10.90;7.08;;;;;;;5.63;97.01;98928.73;1578923;89;21078;-65
2022/11/04 04:10:37;;;;;;;14.10;6.65;;;;;;;5.64;97.00;98929.58;1585773;89;21063;-65
2022/11/04 04:12:39;;;;;;;15.60;6.85;;;;;;;5.62;97.28;98925.73;1574891;89;20973;-65
2022/11/04 04:15:19;;;;;;;16.80;6.53;;;;;;;5.70;97.05;98924.14;1571274;89;20988;-65
2022/11/04 04:17:58;;;;;;;13.53;6.87;;;;;;;5.73;96.97;98926.61;1580527;89;21045;-65
2022/11/04 04:20:28;;;;;;;14.23;7.20;;;;;;;5.74;96.95;98925.69;1570431;89;21542;-65
2022/11/04 04:28:53;;;;;;;14.90;6.78;;;;;;;5.84;96.72;98919.24;1555695;90;20991;-65
2022/11/04 04:34:06;;;;;;;16.23;6.95;;;;;;;5.89;97.05;98922.50;1584789;89;21165;-65
2022/11/04 04:36:47;;;;;;;11.22;6.58;;;;;;;5.94;97.07;98915.41;1577156;88;21139;-65
2022/11/04 04:45:02;;;;;;;15.40;6.85;;;;;;;6.03;97.11;98915.03;1653371;85;20957;-65
2022/11/04 04:47:42;;;;;;;17.85;6.85;;;;;;;6.10;97.12;98923.38;1651565;85;20998;-65
2022/11/04 04:50:12;;;;;;;12.37;6.15;;;;;;;6.13;97.06;98919.81;1659986;84;20982;-65
2022/11/04 04:52:46;;;;;;;11.30;6.60;;;;;;;6.19;97.08;98919.55;1669828;84;21479;-65
2022/11/04 04:55:13;;;;;;;13.40;7.10;;;;;;;6.22;96.95;98914.27;1671428;84;21483;-65
2022/11/04 04:57:40;;;;;;;;;;;;;;;6.25;96.92;98914.13;1655242;85;21494;-65
2022/11/04 05:00:11;;;;;;;12.43;6.22;;;;;;;6.30;96.75;98906.98;1662174;85;21321;-65
2022/11/04 05:02:38;;;;;;;17.12;6.65;;;;;;;6.32;96.75;98905.17;1664517;85;20929;-65
2022/11/04 05:05:05;;;;;;;13.95;5.45;;;;;;;6.35;96.74;98899.84;1642340;86;21035;-65
2022/11/04 05:07:32;;;;;;;;;;;;;;;6.38;96.57;98904.90;1664416;85;21460;-65
2022/11/04 05:09:58;;;;;;;11.90;6.20;;;;;;;6.40;96.38;98892.72;1651778;85;20182;-65
2022/11/04 05:12:25;;;;;;;10.50;5.62;;;;;;;6.41;96.49;98898.74;1654213;85;21082;-65
2022/11/04 05:14:51;;;;;;;16.32;6.83;;;;;;;6.39;96.40;98898.83;1648488;85;20970;-65
2022/11/04 05:17:18;;;;;;;11.10;5.73;;;;;;;6.40;96.46;98894.02;1656703;85;20882;-65
2022/11/04 05:19:45;;;;;;;13.43;5.95;;;;;;;6.42;96.39;98890.08;1650844;85;20906;-65
2022/11/04 05:22:11;;;;;;;13.10;5.80;;;;;;;6.43;96.41;98892.58;1652495;85;20957;-65
2022/11/04 05:24:38;;;;;;;15.98;6.25;;;;;;;6.44;96.27;98883.91;1657284;85;21042;-65
2022/11/04 05:27:04;;;;;;;12.63;5.85;;;;;;;6.43;96.15;98867.95;1662570;85;20997;-65
2022/11/04 05:29:31;;;;;;;14.83;6.53;;;;;;;6.46;96.00;98875.59;1658263;85;21574;-65
2022/11/04 05:31:58;;;;;;;13.55;6.17;;;;;;;6.44;96.01;98860.58;1664162;85;20934;-65
2022/11/04 05:34:25;;;;;;;14.00;6.67;;;;;;;6.42;95.96;98870.16;1659052;85;21134;-65
2022/11/04 05:36:51;;;;;;;12.05;6.58;;;;;;;6.38;95.89;98867.30;1657087;85;21844;-65
2022/11/04 05:39:18;;;;;;;11.10;6.53;;;;;;;6.33;95.86;98860.20;1657469;85;21499;-65
2022/11/04 05:41:44;;;;;;;11.53;6.60;;;;;;;6.30;95.95;98869.39;1659949;85;20897;-65
2022/11/04 05:44:11;;;;;;;10.98;6.30;;;;;;;6.29;96.06;98867.71;1664291;85;21008;-65
2022/11/04 05:46:38;;;;;;;14.60;6.77;;;;;;;6.30;96.04;98862.06;1670573;85;20874;-65
2022/11/04 05:49:04;;;;;;;14.97;6.40;;;;;;;6.32;96.01;98874.06;1665036;85;21193;-64
2022/11/04 05:51:32;;;;;;;15.43;7.17;;;;;;;6.32;95.97;98876.65;1654389;85;21263;-64
2022/11/04 05:54:00;;;;;;;15.48;6.35;;;;;;;6.34;96.00;98873.55;1652365;85;20894;-64
2022/11/04 05:56:27;;;;;;;10.38;6.35;;;;;;;6.36;96.04;98867.84;1658489;85;20953;-64
2022/11/04 05:58:54;;;;;;;16.05;6.65;;;;;;;6.39;95.87;98856.04;1656635;85;20946;-64
2022/11/04 06:01:33;;;;;;;13.80;6.20;;;;;;;6.42;95.93;98862.39;1648358;85;21037;-64
2022/11/04 06:04:02;;;;;;;14.83;6.40;;;;;;;6.41;95.93;98864.61;1660280;85;21456;-64
2022/11/04 06:06:33;;;;;;;12.55;5.25;;;;;;;6.43;96.00;98864.06;1656267;85;20949;-64
2022/11/04 06:09:00;;;;;;;14.75;5.53;;;;;;;6.46;95.91;98856.14;1655811;85;20933;-65
2022/11/04 06:11:28;;;;;;;;;;;;;;;6.49;95.80;98853.41;1660899;85;21017;-64
2022/11/04 06:13:56;;;;;;;15.70;5.90;;;;;;;6.58;95.55;98838.34;1651970;85;21983;-64
2022/11/04 06:16:23;;;;;;;;;;;;;;;6.65;95.43;98855.33;1650082;85;20930;-64
2022/11/04 06:18:50;;;;;;;8.18;6.03;;;;;;;6.63;95.27;98849.36;1665851;84;20154;-65
2022/11/04 06:21:24;;;;;;;11.48;6.62;;;;;;;6.66;95.29;98857.00;1656794;85;20978;-64
2022/11/04 06:23:52;;;;;;;12.80;6.33;;;;;;;6.72;95.30;98859.31;1655689;85;21005;-63
2022/11/04 06:26:19;;;;;;;17.40;7.50;;;;;;;6.75;95.25;98864.39;1657343;85;21052;-65
2022/11/04 06:28:46;;;;;;;11.10;6.20;;;;;;;6.76;95.42;98847.91;1650700;85;21024;-65
2022/11/04 06:31:14;;;;;;;14.63;6.83;;;;;;;6.80;95.39;98848.14;1654875;84;21541;-64
2022/11/04 06:33:42;;;;;;;17.77;6.03;;;;;;;6.87;95.25;98850.84;1656069;85;21066;-65
2022/11/04 06:36:12;;;;;;;15.90;7.58;;;;;;;6.95;94.76;98850.50;1653832;85;21012;-64
2022/11/04 06:38:39;;;;;;;13.40;6.83;;;;;;;7.03;94.80;98841.04;1657718;85;20989;-65
2022/11/04 06:41:10;;;;;;;14.27;7.07;;;;;;;7.07;94.92;98855.11;1656042;85;20961;-65
2022/11/04 06:43:37;;;;;;;17.77;6.62;;;;;;;7.13;94.57;98848.80;1644278;85;20910;-65
2022/11/04 06:46:04;;;;;;;16.27;8.17;;;;;;;7.14;94.66;98842.67;1655981;85;20889;-65
2022/11/04 06:48:31;;;;;;;17.35;8.65;;;;;;;7.18;94.72;98852.02;1658525;85;20945;-65
2022/11/04 06:50:59;;;;;;;19.98;7.92;;;;;;;7.21;94.70;98866.15;1656895;85;21075;-66
2022/11/04 06:53:26;;;;;;;17.52;8.35;;;;;;;7.25;94.35;98861.18;1658309;85;20960;-64
2022/11/04 06:55:53;;;;;;;;;;;;;;;7.25;94.44;98865.08;1659267;84;21608;-65
2022/11/04 06:58:20;;;;;;;20.45;8.68;;;;;;;7.30;94.03;98866.17;1657441;85;20139;-64
2022/11/04 07:00:52;;;;;;;20.00;7.15;;;;;;;7.29;94.06;98873.13;1658400;85;20993;-65
2022/11/04 07:03:18;;;;;;;19.05;7.75;;;;;;;7.33;94.18;98872.05;1657420;85;21390;-66
2022/11/04 07:05:45;;;;;;;13.80;6.80;;;;;;;7.46;93.95;98869.72;1657205;85;20945;-65
2022/11/04 07:08:12;;;;;;;16.25;7.95;;;;;;;7.55;93.85;98881.42;1658726;84;20988;-65
2022/11/04 07:10:39;;;;;;;15.27;7.33;;;;;;;7.65;93.84;98882.67;1659327;85;21176;-64
2022/11/04 07:13:05;;;;;;;25.15;9.95;;;;;;;7.76;93.72;98882.98;1663413;85;21482;-64
2022/11/04 07:15:32;;;;;;;17.82;9.10;;;;;;;7.89;93.74;98887.56;1653731;84;29284;-64
2022/11/04 07:17:59;;;;;;;9.50;5.90;;;;;;;7.95;93.39;98873.80;1656624;85;20977;-65
2022/11/04 07:20:26;;;;;;;15.35;7.30;;;;;;;8.02;93.28;98883.45;1659841;85;21514;-65
2022/11/04 07:22:56;;;;;;;15.88;9.50;;;;;;;8.09;92.98;98879.60;1663946;85;21503;-64
2022/11/04 07:25:27;;;;;;;15.65;7.15;;;;;;;8.17;93.13;98877.45;1662353;85;20945;-65
2022/11/04 07:27:54;;;;;;;16.50;7.30;;;;;;;8.28;92.87;98880.81;1659096;85;21065;-64
2022/11/04 07:30:20;;;;;;;14.10;7.05;;;;;;;8.38;92.56;98880.73;1656063;85;20921;-65
2022/11/04 07:32:47;;;;;;;18.82;8.03;;;;;;;8.36;92.72;98872.16;1658652;85;21009;-65
2022/11/04 07:35:14;;;;;;;15.00;6.53;;;;;;;8.38;92.31;98869.50;1659406;85;20935;-64
2022/11/04 07:37:40;;;;;;;14.45;7.85;;;;;;;8.41;92.33;98871.97;1661320;84;20982;-65
2022/11/04 07:40:09;;;;;;;17.62;8.23;;;;;;;8.42;92.43;98884.04;1668408;85;21065;-65
2022/11/04 07:42:35;;;;;;;12.43;6.40;;;;;;;8.40;92.21;98876.33;1663306;85;20972;-65
2022/11/04 07:45:03;;;;;;;15.90;7.27;;;;;;;8.37;91.51;98877.73;1662103;85;20948;-65
2022/11/04 07:47:30;;;;;;;11.83;6.90;;;;;;;8.23;92.24;98862.00;1662821;85;21384;-65
2022/11/04 07:49:56;;;;;;;9.95;5.95;;;;;;;8.30;92.02;98873.31;1659283;85;21007;-65
2022/11/04 07:52:23;;;;;;;11.35;5.45;;;;;;;8.36;91.65;98871.33;1659690;85;21090;-66
2022/11/04 07:54:50;;;;;;;9.25;5.22;;;;;;;8.35;91.53;98867.05;1658147;85;20909;-65
2022/11/04 07:57:17;;;;;;;9.75;5.53;;;;;;;8.52;91.56;98876.15;1659518;85;21555;-65
2022/11/04 07:59:43;;;;;;;9.45;5.12;;;;;;;8.56;90.76;98865.95;1661172;84;21012;-65
2022/11/04 08:02:10;;;;;;;8.95;4.92;;;;;;;8.60;91.20;98870.08;1658863;84;22019;-65
2022/11/04 08:04:37;;;;;;;10.82;5.17;;;;;;;8.60;90.76;98864.87;1663287;85;21466;-65
2022/11/04 08:07:06;;;;;;;8.83;4.90;;;;;;;8.66;91.50;98859.34;1657079;85;22086;-65
2022/11/04 08:09:35;;;;;;;9.88;5.97;;;;;;;8.74;90.91;98857.17;1653969;85;21480;-66
2022/11/04 08:12:04;;;;;;;12.20;5.90;;;;;;;8.87;90.82;98856.50;1654330;84;20968;-66
2022/11/04 08:14:31;;;;;;;14.65;5.80;;;;;;;9.01;90.89;98863.10;1662424;84;20918;-66
2022/11/04 08:16:58;;;;;;;10.25;4.95;;;;;;;9.26;91.12;98868.27;1656260;84;21043;-66
2022/11/04 08:19:25;;;;;;;11.53;6.22;;;;;;;9.35;89.48;98866.45;1654245;85;20952;-66
2022/11/04 08:21:52;;;;;;;10.70;5.47;;;;;;;9.35;89.83;98865.14;1664364;85;20996;-66
2022/11/04 08:24:19;;;;;;;11.57;6.30;;;;;;;9.33;89.41;98863.95;1660734;84;22714;-66
2022/11/04 08:26:46;;;;;;;8.50;4.75;;;;;;;9.39;89.65;98857.55;1671148;85;21042;-67
2022/11/04 08:29:12;;;;;;;9.57;6.03;;;;;;;9.47;90.09;98864.48;1664543;84;21116;-66
2022/11/04 08:31:39;;;;;;;11.67;6.40;;;;;;;9.46;89.24;98862.78;1657927;85;21000;-67
2022/11/04 08:34:07;;;;;;;11.85;6.75;;;;;;;9.49;88.54;98853.48;1656448;84;21012;-67
2022/11/04 08:36:35;;;;;;;;;;;;;;;9.52;89.06;98853.34;1653530;84;21455;-67
2022/11/04 08:39:07;;;;;;;9.78;5.97;;;;;;;9.63;88.63;98852.27;1667691;84;20528;-66
2022/11/04 08:41:33;;;;;;;10.70;6.12;;;;;;;9.69;88.39;98844.98;1643930;85;21298;-66
2022/11/04 08:44:02;;;;;;;8.53;5.72;;;;;;;9.72;88.98;98853.94;1663626;85;20921;-66
2022/11/04 08:46:34;;;;;;;19.95;14.40;;;;;;;9.82;89.54;98856.40;1659618;85;21052;-66
2022/11/04 08:49:03;;;;;;;48.00;40.17;;;;;;;9.91;89.20;98850.64;1631275;85;21102;-66
2022/11/04 08:51:33;;;;;;;12.85;6.87;;;;;;;9.94;89.13;98858.31;1649312;85;20937;-65
2022/11/04 08:53:59;;;;;;;12.35;5.62;;;;;;;9.95;88.65;98856.07;1658635;85;21086;-65
2022/11/04 08:56:30;;;;;;;13.78;7.80;;;;;;;9.85;87.99;98856.22;1659467;85;20988;-66
2022/11/04 08:58:58;;;;;;;10.65;6.22;;;;;;;9.77;88.34;98850.61;1660537;85;20956;-66
2022/11/04 09:01:26;;;;;;;13.65;6.75;;;;;;;9.80;88.52;98851.30;1657008;84;20945;-66
2022/11/04 09:03:53;;;;;;;10.23;6.58;;;;;;;9.85;88.63;98842.71;1650925;85;20965;-66
2022/11/04 09:06:31;;;;;;;10.15;6.08;;;;;;;9.89;88.40;98843.39;1655130;84;21048;-65
2022/11/04 09:09:02;;;;;;;12.80;6.15;;;;;;;9.82;88.30;98843.36;1642011;85;20949;-66
2022/11/04 09:11:26;;;;;;;15.50;7.00;;;;;;;9.83;87.91;98841.98;1659001;85;20980;-67
2022/11/04 09:13:53;;;;;;;15.80;7.80;;;;;;;9.79;87.77;98842.24;1650922;85;20878;-66
2022/11/04 09:16:20;;;;;;;14.68;8.18;;;;;;;9.76;88.16;98846.33;1649267;85;21411;-66
2022/11/04 09:18:49;;;;;;;20.62;16.77;;;;;;;9.87;88.67;98846.55;1653053;84;21126;-66
2022/11/04 09:21:16;;;;;;;11.50;7.13;;;;;;;10.00;88.34;98856.64;1657015;85;21028;-66
2022/11/04 09:23:43;;;;;;;12.20;7.35;;;;;;;10.00;88.00;98849.30;1662591;84;20992;-66
2022/11/04 09:26:13;;;;;;;14.13;6.37;;;;;;;9.89;87.84;98847.30;1669159;85;21408;-66
2022/11/04 09:28:42;;;;;;;10.48;6.80;;;;;;;9.86;88.21;98847.48;1656834;84;21015;-66
2022/11/04 09:31:18;;;;;;;11.73;6.22;;;;;;;9.89;88.01;98843.39;1650665;84;21046;-66
2022/11/04 09:33:49;;;;;;;8.88;5.78;;;;;;;9.91;88.01;98841.52;1666095;84;20973;-65
2022/11/04 09:36:17;;;;;;;9.75;6.22;;;;;;;9.94;88.12;98841.36;1668827;85;20921;-66
2022/11/04 09:38:46;;;;;;;12.25;6.90;;;;;;;9.99;88.06;98835.39;1650814;85;20897;-66
2022/11/04 09:41:29;;;;;;;10.53;6.25;;;;;;;9.92;87.08;98843.69;1668211;84;21543;-66
2022/11/04 09:44:10;;;;;;;11.80;6.95;;;;;;;9.87;87.17;98836.12;1658041;84;21102;-67
2022/11/04 09:46:39;;;;;;;13.22;7.35;;;;;;;9.88;87.91;98837.78;1660804;85;21147;-66
2022/11/04 09:49:09;;;;;;;11.03;6.53;;;;;;;9.91;87.70;98832.39;1666917;85;21000;-66
2022/11/04 09:51:40;;;;;;;13.20;6.62;;;;;;;9.97;88.00;98834.66;1660269;84;21444;-66
2022/11/04 09:54:26;;;;;;;9.60;6.53;;;;;;;10.17;87.29;98831.34;1663197;85;21788;-65
2022/11/04 09:56:57;;;;;;;11.93;6.62;;;;;;;10.18;86.70;98818.66;1653888;85;21929;-66
2022/11/04 09:59:28;;;;;;;10.75;7.05;;;;;;;10.01;86.12;98820.50;1658774;84;21628;-65
2022/11/04 10:02:38;;;;;;;8.30;6.08;;;;;;;9.90;86.46;98816.38;1657856;85;21424;-65
2022/11/04 10:05:38;;;;;;;12.50;6.35;;;;;;;9.83;86.55;98813.74;1662383;84;20985;-66
2022/11/04 10:08:22;;;;;;;10.60;6.33;;;;;;;9.80;85.99;98803.50;1659840;84;20967;-66
2022/11/04 10:11:22;;;;;;;10.28;6.30;;;;;;;9.78;86.10;98815.34;1661467;84;21050;-66
2022/11/04 10:14:07;;;;;;;14.35;7.55;;;;;;;9.88;86.99;98819.53;1662256;84;21061;-66
2022/11/04 10:16:57;;;;;;;8.68;6.33;;;;;;;10.01;86.93;98830.09;1649720;84;20986;-66
2022/11/04 10:19:47;;;;;;;12.05;6.80;;;;;;;10.08;86.67;98820.52;1655394;84;21013;-65
2022/11/04 10:22:27;;;;;;;13.10;6.53;;;;;;;10.01;86.04;98828.79;1664718;84;21006;-65
2022/11/04 10:25:21;;;;;;;10.43;6.97;;;;;;;10.01;86.53;98832.23;1668393;84;22904;-66
2022/11/04 10:27:49;;;;;;;10.60;6.55;;;;;;;10.09;86.48;98833.92;1659054;84;21531;-67
2022/11/04 10:30:22;;;;;;;13.78;6.80;;;;;;;10.19;86.73;98828.14;1678778;84;21006;-65
2022/11/04 10:33:19;;;;;;;12.60;6.97;;;;;;;10.32;87.02;98829.13;1660251;84;21621;-66
2022/11/04 10:35:56;;;;;;;11.18;6.50;;;;;;;10.39;86.02;98825.23;1659255;84;20942;-65
2022/11/04 10:38:40;;;;;;;9.48;6.65;;;;;;;10.18;85.83;98814.74;1663349;84;21077;-64
2022/11/04 10:41:33;;;;;;;10.53;7.05;;;;;;;10.04;85.79;98833.35;1652875;84;20956;-65
2022/11/04 10:44:22;;;;;;;10.05;6.92;;;;;;;9.85;85.91;98837.97;1661279;84;20967;-65
2022/11/04 10:47:26;;;;;;;11.93;6.83;;;;;;;9.76;85.59;98828.08;1662721;84;20937;-65
2022/11/04 10:50:20;;;;;;;10.90;6.53;;;;;;;9.72;85.70;98836.99;1661768;85;21660;-65
2022/11/04 10:52:47;;;;;;;12.35;6.65;;;;;;;9.70;85.90;98839.70;1667631;85;21088;-66
2022/11/04 10:55:40;;;;;;;8.90;6.30;;;;;;;9.72;86.14;98839.59;1659014;84;21945;-65
2022/11/04 10:58:18;;;;;;;9.28;6.28;;;;;;;9.74;85.99;98835.14;1628361;86;21598;-66
2022/11/04 11:00:46;;;;;;;13.00;6.97;;;;;;;9.72;85.62;98829.17;1628542;86;20954;-66
2022/11/04 11:03:33;;;;;;;10.70;6.47;;;;;;;9.64;85.62;98834.37;1625802;87;20970;-66
2022/11/04 11:06:27;;;;;;;14.27;7.20;;;;;;;9.56;85.93;98837.05;1601164;87;21206;-65
2022/11/04 11:08:59;;;;;;;10.00;6.62;;;;;;;9.68;86.18;98831.59;1625436;86;20951;-66
2022/11/04 11:11:48;;;;;;;12.53;6.53;;;;;;;9.78;86.27;98831.45;1622131;86;20999;-66
2022/11/04 11:14:19;;;;;;;12.45;6.72;;;;;;;9.74;85.69;98820.34;1622294;88;20974;-66
2022/11/04 11:16:47;;;;;;;10.90;6.83;;;;;;;9.59;85.78;98827.28;1619581;86;21023;-65
2022/11/04 11:19:21;;;;;;;9.53;6.10;;;;;;;9.53;85.64;98821.13;1618912;87;21843;-65
2022/11/04 11:21:54;;;;;;;10.85;6.72;;;;;;;9.49;85.67;98817.00;1625412;87;20946;-66
2022/11/04 11:24:25;;;;;;;11.50;6.85;;;;;;;9.43;85.75;98810.01;1614653;87;21013;-66
2022/11/04 11:26:59;;;;;;;9.75;6.55;;;;;;;9.39;85.71;98793.72;1592879;88;20968;-66
2022/11/04 11:29:30;;;;;;;10.32;6.87;;;;;;;9.34;85.76;98789.23;1619244;87;20922;-66
2022/11/04 11:31:59;;;;;;;14.28;7.65;;;;;;;9.31;86.00;98793.31;1587923;88;21132;-66
2022/11/04 11:34:33;;;;;;;10.35;7.12;;;;;;;9.30;86.26;98792.92;1618080;86;21577;-65
2022/11/04 11:37:08;;;;;;;10.65;7.17;;;;;;;9.34;86.32;98786.63;1639117;86;21533;-66
2022/11/04 11:39:32;;;;;;;12.25;7.15;;;;;;;9.39;86.34;98785.91;1639420;86;20960;-65
2022/11/04 11:42:18;;;;;;;11.75;7.10;;;;;;;9.46;86.43;98783.31;1639560;86;21052;-65
2022/11/04 11:44:53;;;;;;;14.55;7.70;;;;;;;9.52;86.50;98771.25;1643823;85;21967;-65
2022/11/04 11:47:28;;;;;;;11.73;7.10;;;;;;;9.57;85.91;98760.07;1628789;86;21546;-65
2022/11/04 11:50:23;;;;;;;11.28;7.33;;;;;;;9.57;86.12;98760.54;1631660;86;20976;-65
2022/11/04 11:52:51;;;;;;;13.68;7.45;;;;;;;9.64;86.21;98749.67;1648060;85;20940;-65
2022/11/04 11:55:26;;;;;;;9.93;6.58;;;;;;;9.71;86.25;98753.22;1630519;86;20948;-64
2022/11/04 11:58:16;;;;;;;13.80;9.40;;;;;;;9.72;85.85;98753.58;1632821;86;21559;-65
2022/11/04 12:00:54;;;;;;;14.95;7.12;;;;;;;9.72;86.02;98750.97;1644620;85;20928;-65
2022/11/04 12:03:36;;;;;;;11.35;6.47;;;;;;;9.75;85.60;98728.66;1634317;86;20920;-65
2022/11/04 12:06:16;;;;;;;10.38;7.37;;;;;;;9.70;85.44;98739.81;1632294;85;20961;-67
2022/11/04 12:09:18;;;;;;;13.22;7.35;;;;;;;9.70;85.59;98746.34;1643762;86;21017;-64
2022/11/04 12:12:15;;;;;;;11.18;7.55;;;;;;;9.72;85.79;98747.92;1637742;86;22714;-65
2022/11/04 12:14:59;;;;;;;11.95;7.45;;;;;;;9.78;85.82;98752.77;1643623;86;21462;-65
2022/11/04 12:17:39;;;;;;;14.55;8.53;;;;;;;9.86;85.54;98746.64;1648567;86;20957;-65
2022/11/04 12:20:26;;;;;;;10.80;7.28;;;;;;;9.91;85.71;98751.55;1652156;86;21008;-66
2022/11/04 12:23:20;;;;;;;12.98;7.33;;;;;;;9.94;85.64;98751.40;1648614;86;20969;-65
2022/11/04 12:26:10;;;;;;;14.85;7.65;;;;;;;9.92;85.46;98748.03;1649706;86;21063;-65
2022/11/04 12:29:10;;;;;;;12.45;7.58;;;;;;;9.91;85.50;98758.55;1648475;86;20997;-65
2022/11/04 12:31:54;;;;;;;11.53;7.75;;;;;;;9.83;85.30;98756.38;1651915;86;21562;-65
2022/11/04 12:34:54;;;;;;;12.28;7.33;;;;;;;9.78;85.54;98764.97;1649621;86;20925;-65
2022/11/04 12:37:57;;;;;;;16.70;7.78;;;;;;;9.74;85.41;98750.42;1652665;86;21562;-66